sensor_id;sensor_type;location;lat;lon;timestamp;pressure;altitude;pressure_sealevel;temperature;humidity
13241;BME280;6687;47.790;7.322;2022-10-20T06:13:07;98978.16;;;12.97;100.00
13241;BME280;6687;47.790;7.322;2022-10-20T06:15:34;98985.88;;;13.05;100.00
13241;BME280;6687;47.790;7.322;2022-10-20T06:18:01;98987.56;;;13.09;100.00
13241;BME280;6687;47.790;7.322;2022-10-20T06:20:27;98983.22;;;13.14;100.00
13241;BME280;6687;47.790;7.322;2022-10-20T06:22:54;98982.31;;;13.18;100.00
13241;BME280;6687;47.790;7.322;2022-10-20T06:25:21;98991.84;;;13.19;100.00
13241;BME280;6687;47.790;7.322;2022-10-20T06:27:48;98991.81;;;13.25;100.00
13241;BME280;6687;47.790;7.322;2022-10-20T06:30:16;98993.50;;;13.26;100.00
13241;BME280;6687;47.790;7.322;2022-10-20T06:32:42;99000.44;;;13.30;100.00
13241;BME280;6687;47.790;7.322;2022-10-20T06:35:09;99015.16;;;13.36;100.00
13241;BME280;6687;47.790;7.322;2022-10-20T06:37:36;99025.66;;;13.21;100.00
13241;BME280;6687;47.790;7.322;2022-10-20T06:40:03;99028.22;;;13.31;100.00
13241;BME280;6687;47.790;7.322;2022-10-20T06:42:30;99037.63;;;13.48;100.00
13241;BME280;6687;47.790;7.322;2022-10-20T06:44:57;99044.50;;;13.53;100.00
13241;BME280;6687;47.790;7.322;2022-10-20T06:47:25;99055.75;;;13.57;100.00
13241;BME280;6687;47.790;7.322;2022-10-20T06:49:52;99080.91;;;13.58;100.00
13241;BME280;6687;47.790;7.322;2022-10-20T06:52:18;99074.00;;;13.54;100.00
13241;BME280;6687;47.790;7.322;2022-10-20T06:54:45;99082.53;;;13.68;100.00
13241;BME280;6687;47.790;7.322;2022-10-20T06:57:12;99086.84;;;13.72;100.00
13241;BME280;6687;47.790;7.322;2022-10-20T06:59:39;99066.00;;;13.76;100.00
13241;BME280;6687;47.790;7.322;2022-10-20T07:02:07;99047.63;;;13.89;100.00
13241;BME280;6687;47.790;7.322;2022-10-20T07:04:35;99058.91;;;13.93;100.00
13241;BME280;6687;47.790;7.322;2022-10-20T07:07:01;99051.88;;;14.00;100.00
13241;BME280;6687;47.790;7.322;2022-10-20T07:09:28;99064.75;;;14.13;100.00
13241;BME280;6687;47.790;7.322;2022-10-20T07:11:55;99075.16;;;14.17;100.00
13241;BME280;6687;47.790;7.322;2022-10-20T07:14:22;99083.75;;;14.22;100.00
13241;BME280;6687;47.790;7.322;2022-10-20T07:16:48;99081.13;;;14.25;100.00
13241;BME280;6687;47.790;7.322;2022-10-20T07:19:15;99081.84;;;14.36;100.00
13241;BME280;6687;47.790;7.322;2022-10-20T07:21:43;99081.78;;;14.42;100.00
13241;BME280;6687;47.790;7.322;2022-10-20T07:24:10;99073.06;;;14.46;100.00
13241;BME280;6687;47.790;7.322;2022-10-20T07:26:38;99065.19;;;14.51;99.34
13241;BME280;6687;47.790;7.322;2022-10-20T07:29:06;99063.38;;;14.59;98.80
13241;BME280;6687;47.790;7.322;2022-10-20T07:31:35;99058.94;;;14.66;97.30
13241;BME280;6687;47.790;7.322;2022-10-20T07:34:05;99050.09;;;14.76;97.93
13241;BME280;6687;47.790;7.322;2022-10-20T07:36:33;99052.66;;;14.82;99.00
13241;BME280;6687;47.790;7.322;2022-10-20T07:39:03;99045.59;;;14.87;96.34
13241;BME280;6687;47.790;7.322;2022-10-20T07:41:31;99051.56;;;14.96;95.34
13241;BME280;6687;47.790;7.322;2022-10-20T07:43:58;99049.69;;;15.07;96.50
13241;BME280;6687;47.790;7.322;2022-10-20T07:46:25;99051.31;;;15.14;95.94
13241;BME280;6687;47.790;7.322;2022-10-20T07:48:52;99048.53;;;15.25;94.56
13241;BME280;6687;47.790;7.322;2022-10-20T07:51:26;99055.41;;;15.30;93.52
13241;BME280;6687;47.790;7.322;2022-10-20T07:53:56;99047.47;;;15.37;92.35
13241;BME280;6687;47.790;7.322;2022-10-20T07:56:26;99048.16;;;15.48;91.50
13241;BME280;6687;47.790;7.322;2022-10-20T07:58:53;99043.69;;;15.56;92.27
13241;BME280;6687;47.790;7.322;2022-10-20T08:01:20;99044.41;;;15.64;90.77
13241;BME280;6687;47.790;7.322;2022-10-20T08:03:47;99046.06;;;15.70;90.25
13241;BME280;6687;47.790;7.322;2022-10-20T08:06:14;99048.56;;;15.78;89.33
13241;BME280;6687;47.790;7.322;2022-10-20T08:08:40;99045.03;;;15.80;88.33
13241;BME280;6687;47.790;7.322;2022-10-20T08:11:08;99043.16;;;15.87;87.92
13241;BME280;6687;47.790;7.322;2022-10-20T08:13:36;99031.72;;;15.93;87.43
13241;BME280;6687;47.790;7.322;2022-10-20T08:16:05;99041.22;;;15.98;87.28
13241;BME280;6687;47.790;7.322;2022-10-20T08:18:32;99028.00;;;16.06;87.68
13241;BME280;6687;47.790;7.322;2022-10-20T08:21:07;99032.25;;;16.12;87.08
13241;BME280;6687;47.790;7.322;2022-10-20T08:23:37;99037.47;;;16.12;86.97
13241;BME280;6687;47.790;7.322;2022-10-20T08:26:04;99047.75;;;16.21;88.36
13241;BME280;6687;47.790;7.322;2022-10-20T08:28:30;99039.09;;;16.17;86.91
13241;BME280;6687;47.790;7.322;2022-10-20T08:31:00;99032.75;;;16.29;86.63
13241;BME280;6687;47.790;7.322;2022-10-20T08:33:27;99033.47;;;16.37;86.65
13241;BME280;6687;47.790;7.322;2022-10-20T08:35:53;99028.75;;;16.53;87.94
13241;BME280;6687;47.790;7.322;2022-10-20T08:38:20;99030.41;;;16.59;86.28
13241;BME280;6687;47.790;7.322;2022-10-20T08:40:47;99017.19;;;16.65;84.98
13241;BME280;6687;47.790;7.322;2022-10-20T08:43:16;99020.47;;;16.73;84.39
13241;BME280;6687;47.790;7.322;2022-10-20T08:45:44;99031.69;;;16.80;83.99
13241;BME280;6687;47.790;7.322;2022-10-20T08:48:16;99028.88;;;16.89;83.80
13241;BME280;6687;47.790;7.322;2022-10-20T08:50:46;99039.19;;;16.97;83.68
13241;BME280;6687;47.790;7.322;2022-10-20T08:53:13;99039.28;;;16.94;82.80
13241;BME280;6687;47.790;7.322;2022-10-20T08:55:42;99039.03;;;17.03;82.75
13241;BME280;6687;47.790;7.322;2022-10-20T08:58:12;99045.81;;;17.13;84.27
13241;BME280;6687;47.790;7.322;2022-10-20T09:00:40;99036.16;;;17.15;82.89
13241;BME280;6687;47.790;7.322;2022-10-20T09:03:15;99039.59;;;17.17;83.26
13241;BME280;6687;47.790;7.322;2022-10-20T09:05:45;99046.56;;;17.17;83.13
13241;BME280;6687;47.790;7.322;2022-10-20T09:08:13;99045.56;;;17.22;83.23
13241;BME280;6687;47.790;7.322;2022-10-20T09:10:43;99045.72;;;17.16;82.94
13241;BME280;6687;47.790;7.322;2022-10-20T09:13:17;99050.06;;;17.17;83.35
13241;BME280;6687;47.790;7.322;2022-10-20T09:15:46;99040.56;;;17.13;83.66
13241;BME280;6687;47.790;7.322;2022-10-20T09:18:15;99036.97;;;17.17;83.74
13241;BME280;6687;47.790;7.322;2022-10-20T09:20:46;99029.78;;;17.27;84.21
13241;BME280;6687;47.790;7.322;2022-10-20T09:23:15;99019.28;;;17.27;83.06
13241;BME280;6687;47.790;7.322;2022-10-20T09:25:44;99009.41;;;17.37;84.02
13241;BME280;6687;47.790;7.322;2022-10-20T09:28:19;98998.72;;;17.46;82.99
13241;BME280;6687;47.790;7.322;2022-10-20T09:30:46;98992.47;;;17.52;81.78
13241;BME280;6687;47.790;7.322;2022-10-20T09:33:26;98988.50;;;17.69;82.74
13241;BME280;6687;47.790;7.322;2022-10-20T09:36:02;98977.03;;;17.74;81.62
13241;BME280;6687;47.790;7.322;2022-10-20T09:38:31;98992.50;;;17.84;81.79
13241;BME280;6687;47.790;7.322;2022-10-20T09:41:07;99001.72;;;17.99;86.26
13241;BME280;6687;47.790;7.322;2022-10-20T09:43:37;98997.44;;;17.97;81.18
13241;BME280;6687;47.790;7.322;2022-10-20T09:46:07;98991.22;;;17.99;81.33
13241;BME280;6687;47.790;7.322;2022-10-20T09:48:38;98995.44;;;18.05;80.13
13241;BME280;6687;47.790;7.322;2022-10-20T09:51:06;98991.78;;;18.11;80.58
13241;BME280;6687;47.790;7.322;2022-10-20T09:53:48;98991.47;;;17.90;81.14
13241;BME280;6687;47.790;7.322;2022-10-20T09:56:25;98990.97;;;18.08;80.89
13241;BME280;6687;47.790;7.322;2022-10-20T09:58:53;98996.72;;;18.21;80.94
13241;BME280;6687;47.790;7.322;2022-10-20T10:01:20;98986.81;;;18.31;82.19
13241;BME280;6687;47.790;7.322;2022-10-20T10:03:49;99002.00;;;18.20;80.23
13241;BME280;6687;47.790;7.322;2022-10-20T10:06:26;99018.13;;;18.37;80.63
13241;BME280;6687;47.790;7.322;2022-10-20T10:08:55;99006.56;;;18.44;81.11
13241;BME280;6687;47.790;7.322;2022-10-20T10:11:25;99000.75;;;18.63;80.95
13241;BME280;6687;47.790;7.322;2022-10-20T10:13:54;98998.31;;;18.57;80.34
13241;BME280;6687;47.790;7.322;2022-10-20T10:16:21;98992.59;;;18.72;82.99
13241;BME280;6687;47.790;7.322;2022-10-20T10:18:57;98971.78;;;18.66;80.69
13241;BME280;6687;47.790;7.322;2022-10-20T10:21:26;98976.59;;;18.81;80.60
13241;BME280;6687;47.790;7.322;2022-10-20T10:23:55;98973.69;;;18.91;80.68
13241;BME280;6687;47.790;7.322;2022-10-20T10:26:37;98972.66;;;18.95;80.14
13241;BME280;6687;47.790;7.322;2022-10-20T10:29:16;98964.06;;;18.90;80.31
13241;BME280;6687;47.790;7.322;2022-10-20T10:31:48;98963.78;;;18.99;80.66
13241;BME280;6687;47.790;7.322;2022-10-20T10:34:29;98952.34;;;19.00;81.25
13241;BME280;6687;47.790;7.322;2022-10-20T10:36:58;98948.88;;;18.99;81.01
13241;BME280;6687;47.790;7.322;2022-10-20T10:39:25;98957.91;;;19.17;81.06
13241;BME280;6687;47.790;7.322;2022-10-20T10:42:02;98949.34;;;19.12;80.44
13241;BME280;6687;47.790;7.322;2022-10-20T10:44:40;98941.84;;;19.26;80.41
13241;BME280;6687;47.790;7.322;2022-10-20T10:47:22;98932.72;;;19.12;79.39
13241;BME280;6687;47.790;7.322;2022-10-20T10:50:00;98936.00;;;19.18;79.77
13241;BME280;6687;47.790;7.322;2022-10-20T10:52:37;98930.84;;;19.42;79.86
13241;BME280;6687;47.790;7.322;2022-10-20T10:55:15;98925.34;;;19.48;79.38
13241;BME280;6687;47.790;7.322;2022-10-20T10:57:52;98930.28;;;19.57;79.05
13241;BME280;6687;47.790;7.322;2022-10-20T11:00:35;98945.53;;;19.73;79.29
13241;BME280;6687;47.790;7.322;2022-10-20T11:03:20;98938.44;;;19.75;78.56
13241;BME280;6687;47.790;7.322;2022-10-20T11:06:15;98939.84;;;19.85;78.66
13241;BME280;6687;47.790;7.322;2022-10-20T11:09:04;98946.47;;;19.95;78.75
13241;BME280;6687;47.790;7.322;2022-10-20T11:11:48;98949.81;;;20.00;78.71
13241;BME280;6687;47.790;7.322;2022-10-20T11:14:27;98945.97;;;20.09;78.33
13241;BME280;6687;47.790;7.322;2022-10-20T11:17:07;98940.38;;;20.18;78.74
13241;BME280;6687;47.790;7.322;2022-10-20T11:22:46;98932.84;;;20.31;78.23
13241;BME280;6687;47.790;7.322;2022-10-20T11:25:26;98940.41;;;20.40;78.56
13241;BME280;6687;47.790;7.322;2022-10-20T11:27:55;98942.13;;;20.41;77.83
13241;BME280;6687;47.790;7.322;2022-10-20T11:30:22;98940.16;;;20.46;78.01
13241;BME280;6687;47.790;7.322;2022-10-20T11:32:55;98934.38;;;20.60;77.60
13241;BME280;6687;47.790;7.322;2022-10-20T11:35:30;98926.75;;;20.53;77.02
13241;BME280;6687;47.790;7.322;2022-10-20T11:38:11;98937.25;;;20.76;77.02
13241;BME280;6687;47.790;7.322;2022-10-20T11:40:44;98937.47;;;20.48;77.26
13241;BME280;6687;47.790;7.322;2022-10-20T11:43:16;98938.66;;;20.63;76.48
13241;BME280;6687;47.790;7.322;2022-10-20T11:45:48;98951.16;;;20.80;76.49
13241;BME280;6687;47.790;7.322;2022-10-20T11:48:20;98956.44;;;20.80;76.03
13241;BME280;6687;47.790;7.322;2022-10-20T11:51:04;98941.75;;;20.74;76.28
13241;BME280;6687;47.790;7.322;2022-10-20T11:53:59;98950.91;;;21.08;75.75
13241;BME280;6687;47.790;7.322;2022-10-20T11:56:51;98943.78;;;21.10;75.36
13241;BME280;6687;47.790;7.322;2022-10-20T11:59:57;98931.50;;;21.31;74.73
13241;BME280;6687;47.790;7.322;2022-10-20T12:02:50;98929.88;;;21.49;75.30
13241;BME280;6687;47.790;7.322;2022-10-20T12:05:41;98934.84;;;21.57;73.86
13241;BME280;6687;47.790;7.322;2022-10-20T12:08:23;98930.63;;;21.53;74.89
13241;BME280;6687;47.790;7.322;2022-10-20T12:10:59;98921.28;;;21.64;74.56
13241;BME280;6687;47.790;7.322;2022-10-20T12:13:36;98910.22;;;21.77;73.75
13241;BME280;6687;47.790;7.322;2022-10-20T12:16:05;98897.31;;;21.90;73.08
13241;BME280;6687;47.790;7.322;2022-10-20T12:18:32;98894.19;;;22.00;73.38
13241;BME280;6687;47.790;7.322;2022-10-20T12:21:01;98892.34;;;22.02;73.71
13241;BME280;6687;47.790;7.322;2022-10-20T12:23:54;98880.91;;;22.02;74.11
13241;BME280;6687;47.790;7.322;2022-10-20T12:29:49;98874.78;;;22.01;73.83
13241;BME280;6687;47.790;7.322;2022-10-20T12:38:21;98873.66;;;22.07;74.49
13241;BME280;6687;47.790;7.322;2022-10-20T12:40:52;98878.38;;;22.00;74.42
13241;BME280;6687;47.790;7.322;2022-10-20T12:43:46;98875.22;;;22.11;74.87
13241;BME280;6687;47.790;7.322;2022-10-20T12:46:18;98872.53;;;22.13;74.76
13241;BME280;6687;47.790;7.322;2022-10-20T12:48:46;98861.41;;;22.25;75.25
13241;BME280;6687;47.790;7.322;2022-10-20T12:51:31;98863.81;;;22.30;74.67
13241;BME280;6687;47.790;7.322;2022-10-20T12:54:03;98858.53;;;22.30;73.83
13241;BME280;6687;47.790;7.322;2022-10-20T12:56:35;98859.75;;;22.41;74.06
13241;BME280;6687;47.790;7.322;2022-10-20T12:59:20;98860.63;;;22.59;73.77
13241;BME280;6687;47.790;7.322;2022-10-20T13:05:13;98837.13;;;22.17;72.37
13241;BME280;6687;47.790;7.322;2022-10-20T13:08:14;98827.03;;;22.27;71.59
13241;BME280;6687;47.790;7.322;2022-10-20T13:10:42;98829.41;;;22.12;71.67
13241;BME280;6687;47.790;7.322;2022-10-20T13:16:16;98820.72;;;22.10;72.82
13241;BME280;6687;47.790;7.322;2022-10-20T13:18:45;98823.03;;;21.80;72.05
13241;BME280;6687;47.790;7.322;2022-10-20T13:21:25;98819.03;;;21.71;71.42
13241;BME280;6687;47.790;7.322;2022-10-20T13:24:01;98821.75;;;21.89;72.20
13241;BME280;6687;47.790;7.322;2022-10-20T13:26:31;98815.44;;;22.10;72.40
13241;BME280;6687;47.790;7.322;2022-10-20T13:29:10;98818.38;;;22.04;72.98
13241;BME280;6687;47.790;7.322;2022-10-20T13:31:44;98814.88;;;22.03;72.81
13241;BME280;6687;47.790;7.322;2022-10-20T13:34:15;98813.84;;;21.89;72.93
13241;BME280;6687;47.790;7.322;2022-10-20T13:39:37;98819.81;;;21.92;73.20
13241;BME280;6687;47.790;7.322;2022-10-20T13:42:19;98819.31;;;21.84;73.58
13241;BME280;6687;47.790;7.322;2022-10-20T13:44:57;98823.88;;;21.99;72.29
13241;BME280;6687;47.790;7.322;2022-10-20T13:47:47;98818.47;;;22.02;74.22
13241;BME280;6687;47.790;7.322;2022-10-20T13:50:16;98816.75;;;22.01;73.75
13241;BME280;6687;47.790;7.322;2022-10-20T13:52:48;98829.03;;;22.02;72.57
13241;BME280;6687;47.790;7.322;2022-10-20T13:55:18;98840.19;;;22.08;74.05
13241;BME280;6687;47.790;7.322;2022-10-20T13:57:56;98871.38;;;21.99;75.36
13241;BME280;6687;47.790;7.322;2022-10-20T14:00:25;98886.47;;;21.96;75.81
13241;BME280;6687;47.790;7.322;2022-10-20T14:03:01;98879.06;;;21.85;75.62
13241;BME280;6687;47.790;7.322;2022-10-20T14:05:35;98875.78;;;21.80;76.25
13241;BME280;6687;47.790;7.322;2022-10-20T14:08:07;98861.44;;;21.67;77.74
13241;BME280;6687;47.790;7.322;2022-10-20T14:10:38;98854.75;;;21.39;80.91
13241;BME280;6687;47.790;7.322;2022-10-20T14:13:13;98835.34;;;21.60;80.10
13241;BME280;6687;47.790;7.322;2022-10-20T14:15:45;98823.88;;;21.61;80.10
13241;BME280;6687;47.790;7.322;2022-10-20T14:18:22;98813.38;;;21.60;79.76
13241;BME280;6687;47.790;7.322;2022-10-20T14:20:55;98819.78;;;21.54;79.72
13241;BME280;6687;47.790;7.322;2022-10-20T14:23:23;98826.13;;;21.50;79.88
13241;BME280;6687;47.790;7.322;2022-10-20T14:25:51;98830.84;;;21.43;79.81
13241;BME280;6687;47.790;7.322;2022-10-20T14:28:19;98820.47;;;21.39;80.18
13241;BME280;6687;47.790;7.322;2022-10-20T14:30:48;98824.06;;;21.36;80.52
13241;BME280;6687;47.790;7.322;2022-10-20T14:33:16;98814.59;;;21.32;81.96
13241;BME280;6687;47.790;7.322;2022-10-20T14:35:48;98815.66;;;21.28;80.92
13241;BME280;6687;47.790;7.322;2022-10-20T14:38:18;98828.25;;;21.21;81.09
13241;BME280;6687;47.790;7.322;2022-10-20T14:40:50;98827.59;;;21.16;81.26
13241;BME280;6687;47.790;7.322;2022-10-20T14:43:19;98820.75;;;21.12;81.47
13241;BME280;6687;47.790;7.322;2022-10-20T14:45:55;98826.28;;;21.06;81.63
13241;BME280;6687;47.790;7.322;2022-10-20T14:48:23;98830.81;;;21.02;81.60
13241;BME280;6687;47.790;7.322;2022-10-20T14:50:54;98827.66;;;20.94;82.42
13241;BME280;6687;47.790;7.322;2022-10-20T14:53:30;98832.19;;;20.91;82.20
13241;BME280;6687;47.790;7.322;2022-10-20T14:55:58;98822.81;;;20.85;82.44
13241;BME280;6687;47.790;7.322;2022-10-20T14:58:29;98822.13;;;20.80;82.76
13241;BME280;6687;47.790;7.322;2022-10-20T15:01:14;98812.72;;;20.74;82.93
13241;BME280;6687;47.790;7.322;2022-10-20T15:03:41;98808.75;;;20.64;84.29
13241;BME280;6687;47.790;7.322;2022-10-20T15:06:13;98817.00;;;20.55;87.06
13241;BME280;6687;47.790;7.322;2022-10-20T15:08:50;98811.81;;;20.53;85.57
13241;BME280;6687;47.790;7.322;2022-10-20T15:11:20;98810.94;;;20.31;89.84
13241;BME280;6687;47.790;7.322;2022-10-20T15:13:49;98804.94;;;20.27;91.65
13241;BME280;6687;47.790;7.322;2022-10-20T15:16:38;98801.16;;;20.34;90.08
13241;BME280;6687;47.790;7.322;2022-10-20T15:19:25;98809.97;;;20.33;87.94
13241;BME280;6687;47.790;7.322;2022-10-20T15:21:58;98802.03;;;20.13;92.17
13241;BME280;6687;47.790;7.322;2022-10-20T15:24:25;98793.69;;;20.01;94.25
13241;BME280;6687;47.790;7.322;2022-10-20T15:26:52;98788.66;;;19.95;94.70
13241;BME280;6687;47.790;7.322;2022-10-20T15:29:19;98786.13;;;19.46;96.01
13241;BME280;6687;47.790;7.322;2022-10-20T15:31:46;98802.66;;;19.50;96.18
13241;BME280;6687;47.790;7.322;2022-10-20T15:34:13;98806.53;;;19.40;95.88
13241;BME280;6687;47.790;7.322;2022-10-20T15:36:39;98814.72;;;19.31;94.93
13241;BME280;6687;47.790;7.322;2022-10-20T15:39:08;98821.84;;;19.52;93.92
13241;BME280;6687;47.790;7.322;2022-10-20T15:41:36;98816.44;;;19.55;94.06
13241;BME280;6687;47.790;7.322;2022-10-20T15:44:12;98812.50;;;19.67;93.16
13241;BME280;6687;47.790;7.322;2022-10-20T15:46:39;98811.31;;;19.52;93.40
13241;BME280;6687;47.790;7.322;2022-10-20T15:49:06;98795.50;;;19.05;97.99
13241;BME280;6687;47.790;7.322;2022-10-20T15:51:34;98782.56;;;19.00;99.44
13241;BME280;6687;47.790;7.322;2022-10-20T15:54:01;98782.09;;;19.13;98.56
13241;BME280;6687;47.790;7.322;2022-10-20T15:56:29;98778.69;;;18.85;100.00
13241;BME280;6687;47.790;7.322;2022-10-20T15:58:57;98774.78;;;18.71;100.00
13241;BME280;6687;47.790;7.322;2022-10-20T16:01:24;98777.72;;;18.88;99.56
13241;BME280;6687;47.790;7.322;2022-10-20T16:03:52;98782.75;;;18.94;98.89
13241;BME280;6687;47.790;7.322;2022-10-20T16:06:20;98783.88;;;19.12;97.35
13241;BME280;6687;47.790;7.322;2022-10-20T16:08:48;98795.19;;;19.14;95.91
13241;BME280;6687;47.790;7.322;2022-10-20T16:11:17;98814.47;;;19.13;94.49
13241;BME280;6687;47.790;7.322;2022-10-20T16:13:46;98818.03;;;19.12;94.20
13241;BME280;6687;47.790;7.322;2022-10-20T16:16:14;98813.78;;;19.08;94.75
13241;BME280;6687;47.790;7.322;2022-10-20T16:18:42;98806.63;;;18.88;96.15
13241;BME280;6687;47.790;7.322;2022-10-20T16:21:08;98798.66;;;18.63;99.75
13241;BME280;6687;47.790;7.322;2022-10-20T16:23:36;98793.31;;;18.66;100.00
13241;BME280;6687;47.790;7.322;2022-10-20T16:26:04;98793.41;;;18.63;100.00
13241;BME280;6687;47.790;7.322;2022-10-20T16:28:32;98794.66;;;18.53;100.00
13241;BME280;6687;47.790;7.322;2022-10-20T16:31:05;98809.00;;;18.67;100.00
13241;BME280;6687;47.790;7.322;2022-10-20T16:33:33;98810.78;;;18.67;100.00
13241;BME280;6687;47.790;7.322;2022-10-20T16:36:01;98791.00;;;18.30;100.00
13241;BME280;6687;47.790;7.322;2022-10-20T16:38:29;98785.63;;;18.60;100.00
13241;BME280;6687;47.790;7.322;2022-10-20T16:40:56;98769.09;;;18.58;100.00
13241;BME280;6687;47.790;7.322;2022-10-20T16:43:23;98753.56;;;18.52;100.00
13241;BME280;6687;47.790;7.322;2022-10-20T16:45:50;98749.03;;;18.30;100.00
13241;BME280;6687;47.790;7.322;2022-10-20T16:48:18;98762.78;;;18.38;100.00
13241;BME280;6687;47.790;7.322;2022-10-20T16:50:45;98781.53;;;18.53;99.03
13241;BME280;6687;47.790;7.322;2022-10-20T16:53:12;98807.81;;;18.51;97.69
13241;BME280;6687;47.790;7.322;2022-10-20T16:55:39;98799.16;;;18.47;98.28
13241;BME280;6687;47.790;7.322;2022-10-20T16:58:06;98773.84;;;18.20;100.00
13241;BME280;6687;47.790;7.322;2022-10-20T17:00:32;98760.03;;;18.15;100.00
13241;BME280;6687;47.790;7.322;2022-10-20T17:02:59;98748.41;;;18.22;100.00
13241;BME280;6687;47.790;7.322;2022-10-20T17:05:27;98735.34;;;17.94;100.00
13241;BME280;6687;47.790;7.322;2022-10-20T17:07:54;98729.63;;;17.81;100.00
13241;BME280;6687;47.790;7.322;2022-10-20T17:10:20;98729.13;;;17.96;100.00
13241;BME280;6687;47.790;7.322;2022-10-20T17:12:47;98739.06;;;18.15;100.00
13241;BME280;6687;47.790;7.322;2022-10-20T17:15:14;98748.56;;;18.17;100.00
13241;BME280;6687;47.790;7.322;2022-10-20T17:17:41;98750.47;;;18.12;100.00
13241;BME280;6687;47.790;7.322;2022-10-20T17:20:08;98756.50;;;18.16;99.51
13241;BME280;6687;47.790;7.322;2022-10-20T17:22:36;98757.41;;;18.15;98.71
13241;BME280;6687;47.790;7.322;2022-10-20T17:25:04;98759.06;;;18.17;98.09
13241;BME280;6687;47.790;7.322;2022-10-20T17:27:31;98764.47;;;18.13;97.77
13241;BME280;6687;47.790;7.322;2022-10-20T17:29:57;98774.22;;;18.07;99.56
13241;BME280;6687;47.790;7.322;2022-10-20T17:32:24;98766.56;;;18.01;100.00
13241;BME280;6687;47.790;7.322;2022-10-20T17:34:51;98766.97;;;17.89;100.00
13241;BME280;6687;47.790;7.322;2022-10-20T17:37:17;98767.41;;;18.02;100.00
13241;BME280;6687;47.790;7.322;2022-10-20T17:39:46;98778.72;;;18.04;99.17
13241;BME280;6687;47.790;7.322;2022-10-20T17:42:12;98777.94;;;18.00;98.13
13241;BME280;6687;47.790;7.322;2022-10-20T17:44:39;98792.00;;;17.98;98.53
13241;BME280;6687;47.790;7.322;2022-10-20T17:47:06;98786.72;;;17.99;98.64
13241;BME280;6687;47.790;7.322;2022-10-20T17:49:33;98788.53;;;17.97;98.29
13241;BME280;6687;47.790;7.322;2022-10-20T17:51:59;98783.78;;;17.80;100.00
13241;BME280;6687;47.790;7.322;2022-10-20T17:54:26;98786.19;;;17.88;99.12
13241;BME280;6687;47.790;7.322;2022-10-20T17:56:54;98788.94;;;17.85;99.22
13241;BME280;6687;47.790;7.322;2022-10-20T17:59:21;98795.91;;;17.84;98.79
13241;BME280;6687;47.790;7.322;2022-10-20T18:01:47;98792.44;;;17.82;98.96
13241;BME280;6687;47.790;7.322;2022-10-20T18:04:15;98788.19;;;17.78;97.83
13241;BME280;6687;47.790;7.322;2022-10-20T18:06:43;98787.53;;;17.72;99.65
13241;BME280;6687;47.790;7.322;2022-10-20T18:09:13;98790.75;;;17.52;100.00
13241;BME280;6687;47.790;7.322;2022-10-20T18:11:43;98782.38;;;17.68;100.00
13241;BME280;6687;47.790;7.322;2022-10-20T18:14:11;98778.09;;;17.66;100.00
13241;BME280;6687;47.790;7.322;2022-10-20T18:16:39;98772.81;;;17.38;100.00
13241;BME280;6687;47.790;7.322;2022-10-20T18:19:06;98770.75;;;17.49;100.00
13241;BME280;6687;47.790;7.322;2022-10-20T18:21:34;98772.19;;;17.59;100.00
13241;BME280;6687;47.790;7.322;2022-10-20T18:24:02;98763.97;;;17.42;100.00
13241;BME280;6687;47.790;7.322;2022-10-20T18:26:30;98760.28;;;17.49;100.00
13241;BME280;6687;47.790;7.322;2022-10-20T18:28:59;98759.16;;;17.26;100.00
13241;BME280;6687;47.790;7.322;2022-10-20T18:31:28;98740.47;;;17.09;100.00
13241;BME280;6687;47.790;7.322;2022-10-20T18:33:57;98743.63;;;17.20;100.00
13241;BME280;6687;47.790;7.322;2022-10-20T18:36:25;98751.31;;;17.26;100.00
13241;BME280;6687;47.790;7.322;2022-10-20T18:38:53;98753.03;;;17.27;100.00
13241;BME280;6687;47.790;7.322;2022-10-20T18:41:23;98752.00;;;17.33;100.00
13241;BME280;6687;47.790;7.322;2022-10-20T18:43:51;98747.25;;;17.16;100.00
13241;BME280;6687;47.790;7.322;2022-10-20T18:46:18;98733.53;;;17.38;100.00
13241;BME280;6687;47.790;7.322;2022-10-20T18:48:46;98745.34;;;17.21;100.00
13241;BME280;6687;47.790;7.322;2022-10-20T18:51:14;98745.47;;;17.17;100.00
13241;BME280;6687;47.790;7.322;2022-10-20T18:53:42;98757.25;;;17.33;100.00
13241;BME280;6687;47.790;7.322;2022-10-20T18:56:11;98758.81;;;17.39;100.00
13241;BME280;6687;47.790;7.322;2022-10-20T18:58:40;98750.22;;;17.34;100.00
13241;BME280;6687;47.790;7.322;2022-10-20T19:01:09;98740.72;;;17.00;100.00
13241;BME280;6687;47.790;7.322;2022-10-20T19:03:37;98738.13;;;17.29;100.00
13241;BME280;6687;47.790;7.322;2022-10-20T19:06:07;98744.25;;;17.28;100.00
13241;BME280;6687;47.790;7.322;2022-10-20T19:08:36;98749.47;;;17.30;100.00
13241;BME280;6687;47.790;7.322;2022-10-20T19:11:04;98743.38;;;17.29;100.00
13241;BME280;6687;47.790;7.322;2022-10-20T19:13:31;98733.69;;;17.02;100.00
13241;BME280;6687;47.790;7.322;2022-10-20T19:15:59;98733.50;;;17.08;100.00
13241;BME280;6687;47.790;7.322;2022-10-20T19:18:27;98737.63;;;17.17;100.00
13241;BME280;6687;47.790;7.322;2022-10-20T19:20:54;98747.25;;;17.16;100.00
13241;BME280;6687;47.790;7.322;2022-10-20T19:23:23;98738.59;;;17.13;100.00
13241;BME280;6687;47.790;7.322;2022-10-20T19:26:04;98744.72;;;17.13;100.00
13241;BME280;6687;47.790;7.322;2022-10-20T19:28:33;98735.34;;;17.04;100.00
13241;BME280;6687;47.790;7.322;2022-10-20T19:31:01;98742.34;;;17.04;100.00
13241;BME280;6687;47.790;7.322;2022-10-20T19:33:28;98729.22;;;17.05;100.00
13241;BME280;6687;47.790;7.322;2022-10-20T19:35:55;98728.53;;;16.99;100.00
13241;BME280;6687;47.790;7.322;2022-10-20T19:38:23;98730.25;;;17.00;100.00
13241;BME280;6687;47.790;7.322;2022-10-20T19:40:49;98733.69;;;17.02;100.00
13241;BME280;6687;47.790;7.322;2022-10-20T19:43:16;98720.13;;;16.87;100.00
13241;BME280;6687;47.790;7.322;2022-10-20T19:45:43;98736.13;;;16.75;100.00
13241;BME280;6687;47.790;7.322;2022-10-20T19:48:10;98727.84;;;16.92;100.00
13241;BME280;6687;47.790;7.322;2022-10-20T19:50:36;98732.13;;;16.95;100.00
13241;BME280;6687;47.790;7.322;2022-10-20T19:53:03;98726.03;;;16.94;100.00
13241;BME280;6687;47.790;7.322;2022-10-20T19:55:31;98708.63;;;16.93;100.00
13241;BME280;6687;47.790;7.322;2022-10-20T19:58:00;98712.91;;;16.96;100.00
13241;BME280;6687;47.790;7.322;2022-10-20T20:00:27;98714.91;;;16.87;100.00